Time;durP1;ratioP1;P1;durP2;ratioP2;P2;SDS_P1;SDS_P2;PMS_P1;PMS_P2;Temp;Humidity;BMP_temperature;BMP_pressure;BME280_temperature;BME280_humidity;BME280_pressure;Samples;Min_cycle;Max_cycle;Signal;HPM_P1;HPM_P2
2021/04/13 00:00:33;;;;;;;;;1.00;1.00;;;;;15.72;44.28;99080.28;4985626;28;103807;-88
2021/04/13 00:03:03;;;;;;;;;2.00;2.00;;;;;15.71;44.23;99084.09;4986146;28;101887;-88
2021/04/13 00:05:36;;;;;;;;;2.00;2.00;;;;;15.70;44.35;99079.69;4986529;28;102012;-88
2021/04/13 00:08:08;;;;;;;;;1.00;1.00;;;;;15.70;44.24;99085.13;4988391;28;102281;-88
2021/04/13 00:10:41;;;;;;;;;0.00;0.00;;;;;15.70;44.20;99084.28;4981035;28;103161;-88
2021/04/13 00:13:08;;;;;;;;;1.75;1.75;;;;;15.69;44.35;99088.06;4992353;28;101728;-88
2021/04/13 00:15:51;;;;;;;;;2.00;0.75;;;;;15.68;44.12;99087.22;4990996;28;102061;-88
2021/04/13 00:18:24;;;;;;;;;1.33;1.33;;;;;15.68;43.98;99094.56;4983528;28;102075;-88
2021/04/13 00:20:55;;;;;;;;;1.00;1.00;;;;;15.67;44.36;99090.19;4988290;28;103569;-88
2021/04/13 00:23:21;;;;;;;;;1.00;1.00;;;;;15.66;44.20;99089.38;4994814;28;102498;-88
2021/04/13 00:26:01;;;;;;;;;1.00;1.00;;;;;15.66;44.03;99088.53;4986684;28;102064;-88
2021/04/13 00:28:41;;;;;;;;;2.00;1.00;;;;;15.65;44.40;99087.69;4990436;28;102132;-88
2021/04/13 00:31:08;;;;;;;;;2.00;1.00;;;;;15.65;44.05;99087.69;4979278;28;103560;-88
2021/04/13 00:33:36;;;;;;;;;1.00;1.00;;;;;15.65;43.83;99097.75;4984686;28;102095;-88
2021/04/13 00:36:08;;;;;;;;;1.00;1.00;;;;;15.65;44.13;99089.56;4991491;28;101773;-88
2021/04/13 00:38:40;;;;;;;;;1.00;1.00;;;;;15.63;44.39;99095.25;4985269;28;102183;-88
2021/04/13 00:41:11;;;;;;;;;2.00;1.33;;;;;15.63;44.27;99087.06;4990285;28;102426;-88
2021/04/13 00:43:40;;;;;;;;;1.67;1.33;;;;;15.63;44.24;99084.34;4991469;28;101760;-88
2021/04/13 00:46:07;;;;;;;;;1.00;1.00;;;;;15.61;44.45;99079.13;4991058;28;104421;-88
2021/04/13 00:48:35;;;;;;;;;1.00;1.00;;;;;15.62;44.49;99082.69;4987776;28;101820;-88
2021/04/13 00:51:07;;;;;;;;;2.00;1.00;;;;;15.62;43.90;99090.88;4989043;28;103502;-88
2021/04/13 00:53:34;;;;;;;;;1.00;1.00;;;;;15.61;44.17;99097.38;4994606;28;103125;-88
2021/04/13 00:56:05;;;;;;;;;1.75;1.75;;;;;15.57;44.48;99085.25;4971818;28;102138;-88
2021/04/13 00:58:36;;;;;;;;;0.75;0.75;;;;;15.58;43.95;99087.72;4972887;28;101716;-88
2021/04/13 01:01:13;;;;;;;;;0.50;0.50;;;;;15.58;44.40;99090.44;4990876;28;102442;-88
2021/04/13 01:04:01;;;;;;;;;1.00;1.00;;;;;15.59;44.08;99094.00;4987480;28;101673;-88
2021/04/13 01:06:30;;;;;;;;;1.75;1.00;;;;;15.57;44.28;99090.69;4985209;28;102151;-79
2021/04/13 01:09:07;;;;;;;;;2.00;1.00;;;;;15.56;44.35;99097.19;4993031;28;104158;-80
2021/04/13 01:11:41;;;;;;;;;1.00;1.00;;;;;15.56;44.29;99089.84;4987083;28;103344;-80
2021/04/13 01:14:08;;;;;;;;;1.00;1.00;;;;;15.55;44.08;99098.25;4987656;28;102022;-80
2021/04/13 01:16:39;;;;;;;;;1.00;1.00;;;;;15.56;43.95;99094.47;4989036;28;101720;-80
2021/04/13 01:19:12;;;;;;;;;1.00;0.67;;;;;15.54;44.08;99091.09;4987015;28;102420;-80
2021/04/13 01:21:58;;;;;;;;;1.00;1.00;;;;;15.54;44.08;99093.84;4955580;28;103489;-88
2021/04/13 01:24:30;;;;;;;;;1.00;1.00;;;;;15.53;43.84;99095.75;4985535;28;102281;-88
2021/04/13 01:26:57;;;;;;;;;1.25;1.00;;;;;15.53;44.28;99100.38;4974002;28;102520;-80
2021/04/13 01:29:26;;;;;;;;;1.00;1.00;;;;;15.53;43.91;99100.38;4987468;28;102151;-80
2021/04/13 01:31:56;;;;;;;;;1.00;1.00;;;;;15.52;44.52;99098.69;4989066;28;103408;-87
2021/04/13 01:34:39;;;;;;;;;1.00;1.00;;;;;15.52;44.32;99094.06;4971242;28;105954;-88
2021/04/13 01:40:06;;;;;;;;;2.00;1.25;;;;;15.50;44.00;99092.56;4992582;28;101758;-88
2021/04/13 01:42:33;;;;;;;;;0.33;0.33;;;;;15.50;44.04;99100.75;4992840;28;103389;-88
2021/04/13 01:45:05;;;;;;;;;0.00;0.00;;;;;15.49;44.05;99094.47;4987560;28;101724;-88
2021/04/13 01:47:32;;;;;;;;;0.33;0.33;;;;;15.48;44.14;99091.97;4991667;28;103435;-79
2021/04/13 01:50:06;;;;;;;;;1.00;1.00;;;;;15.48;44.07;99091.97;4992132;28;103088;-87
2021/04/13 01:52:38;;;;;;;;;0.00;0.00;;;;;15.48;43.97;99097.44;4988192;28;103802;-88
2021/04/13 01:55:10;;;;;;;;;0.67;0.67;;;;;15.47;43.83;99090.31;4957525;28;103703;-88
2021/04/13 01:57:55;;;;;;;;;0.67;0.67;;;;;15.48;43.99;99102.88;4981672;28;101746;-88
2021/04/13 02:00:29;;;;;;;;;0.67;0.67;;;;;15.46;43.83;99099.53;4988790;28;102088;-80
2021/04/13 02:03:13;;;;;;;;;0.00;0.00;;;;;15.46;43.97;99110.44;4988976;28;103608;-87
2021/04/13 02:05:42;;;;;;;;;1.00;1.00;;;;;15.45;43.88;99115.03;4998548;28;101731;-88
2021/04/13 02:08:24;;;;;;;;;0.00;0.00;;;;;15.44;44.33;99113.41;4983002;28;101758;-88
2021/04/13 02:11:12;;;;;;;;;1.25;1.00;;;;;15.45;44.25;99120.50;4991988;28;102124;-80
2021/04/13 02:14:06;;;;;;;;;1.00;1.00;;;;;15.44;44.28;99126.19;4984910;28;103475;-79
2021/04/13 02:16:37;;;;;;;;;1.00;1.00;;;;;15.44;44.04;99128.91;4983189;28;102589;-80
2021/04/13 02:19:07;;;;;;;;;0.25;0.25;;;;;15.43;44.40;99128.06;4985714;28;102451;-88
2021/04/13 02:21:36;;;;;;;;;1.00;1.00;;;;;15.42;43.81;99128.28;4976514;28;103382;-88
2021/04/13 02:24:09;;;;;;;;;1.00;1.00;;;;;15.42;43.35;99131.00;4982845;28;103632;-88
2021/04/13 02:26:43;;;;;;;;;1.00;1.00;;;;;15.42;43.60;99125.56;4971632;28;101923;-88
2021/04/13 02:29:10;;;;;;;;;0.00;0.00;;;;;15.40;44.01;99128.50;4990367;28;103262;-88
2021/04/13 02:31:37;;;;;;;;;0.00;0.00;;;;;15.42;44.10;99136.44;4987111;28;101922;-88
2021/04/13 02:34:20;;;;;;;;;2.00;0.00;;;;;15.39;43.60;99135.03;4988079;28;103412;-81
2021/04/13 02:36:50;;;;;;;;;0.00;0.00;;;;;15.40;43.92;99133.13;4990070;28;102405;-80
2021/04/13 02:39:18;;;;;;;;;1.00;1.00;;;;;15.39;44.05;99136.91;4969926;28;103363;-88
2021/04/13 02:41:49;;;;;;;;;0.50;0.50;;;;;15.39;44.11;99131.44;4986977;28;101839;-80
2021/04/13 02:44:18;;;;;;;;;0.50;0.50;;;;;15.38;43.80;99141.50;4977065;28;103794;-80
2021/04/13 02:46:45;;;;;;;;;1.25;0.25;;;;;15.37;43.86;99145.28;4968064;28;102653;-80
2021/04/13 02:49:13;;;;;;;;;0.00;0.00;;;;;15.37;43.77;99145.28;4985187;28;102812;-80
2021/04/13 02:51:46;;;;;;;;;1.25;0.00;;;;;15.37;43.59;99145.28;4989302;28;102212;-80
2021/04/13 02:54:15;;;;;;;;;1.00;0.00;;;;;15.37;43.68;99139.00;4965425;28;103566;-88
2021/04/13 02:56:43;;;;;;;;;1.00;0.25;;;;;15.35;43.88;99152.03;4981924;28;101722;-88
2021/04/13 02:59:13;;;;;;;;;1.50;1.00;;;;;15.35;44.09;99150.13;4989238;28;102079;-88
2021/04/13 03:02:01;;;;;;;;;0.00;0.00;;;;;15.35;43.82;99146.56;4987569;28;102234;-79
2021/04/13 03:04:27;;;;;;;;;0.75;0.75;;;;;15.34;44.17;99150.34;4984725;28;105102;-88
2021/04/13 03:06:55;;;;;;;;;0.25;0.25;;;;;15.34;44.31;99148.47;4973259;28;102042;-89
2021/04/13 03:09:24;;;;;;;;;0.00;0.00;;;;;15.32;44.15;99147.81;4971683;28;102336;-88
2021/04/13 03:11:54;;;;;;;;;0.50;0.50;;;;;15.32;44.03;99147.81;4992598;28;101769;-88
2021/04/13 03:14:21;;;;;;;;;1.00;0.25;;;;;15.32;43.67;99147.81;4984945;28;103607;-88
2021/04/13 03:16:48;;;;;;;;;0.67;0.67;;;;;15.32;43.74;99144.25;4980287;28;102968;-88
2021/04/13 03:19:18;;;;;;;;;0.25;0.25;;;;;15.31;44.09;99146.16;4972736;28;101961;-80
2021/04/13 03:21:52;;;;;;;;;0.00;0.00;;;;;15.31;43.69;99150.78;4972145;28;102277;-80
2021/04/13 03:24:24;;;;;;;;;0.00;0.00;;;;;15.30;44.01;99155.41;4966464;28;103457;-80
2021/04/13 03:26:52;;;;;;;;;0.00;0.00;;;;;15.30;44.14;99146.38;4972794;28;101922;-88
2021/04/13 03:29:22;;;;;;;;;1.50;1.00;;;;;15.30;44.05;99154.56;4986518;28;101986;-88
2021/04/13 03:31:49;;;;;;;;;0.00;0.00;;;;;15.30;44.14;99154.56;4980551;28;102084;-88
2021/04/13 03:34:16;;;;;;;;;0.00;0.00;;;;;15.29;43.78;99152.88;4966736;28;103375;-88
2021/04/13 03:36:43;;;;;;;;;0.50;0.50;;;;;15.29;43.76;99158.34;4968649;28;103143;-80
2021/04/13 03:39:12;;;;;;;;;0.25;0.25;;;;;15.28;43.90;99167.56;4946832;28;102488;-79
2021/04/13 03:41:41;;;;;;;;;0.00;0.00;;;;;15.28;43.75;99162.09;4937286;28;102955;-80
2021/04/13 03:44:08;;;;;;;;;0.00;0.00;;;;;15.26;44.37;99164.22;4961916;28;105479;-80
2021/04/13 03:46:37;;;;;;;;;1.50;1.50;;;;;15.25;43.80;99174.28;4964553;28;101675;-80
2021/04/13 03:49:09;;;;;;;;;0.25;0.25;;;;;15.26;43.94;99175.13;4956071;28;102288;-80
2021/04/13 03:51:40;;;;;;;;;0.25;0.00;;;;;15.25;43.60;99176.16;4965627;28;104378;-88
2021/04/13 03:54:28;;;;;;;;;0.50;0.50;;;;;15.25;43.91;99184.34;4949310;28;103611;-88
2021/04/13 03:56:56;;;;;;;;;1.00;0.00;;;;;15.26;44.14;99186.03;4959663;28;103906;-89
2021/04/13 03:59:25;;;;;;;;;0.00;0.00;;;;;15.25;43.63;99184.34;4968128;28;103677;-88
2021/04/13 04:01:52;;;;;;;;;0.00;0.00;;;;;15.24;44.09;99194.41;4973716;28;101850;-80
2021/04/13 04:04:32;;;;;;;;;0.00;0.00;;;;;15.23;43.85;99192.72;4966594;28;103632;-81
2021/04/13 04:07:24;;;;;;;;;0.50;0.50;;;;;15.24;43.91;99204.47;4970425;28;102063;-88
2021/04/13 04:09:51;;;;;;;;;0.75;0.00;;;;;15.23;43.88;99197.34;4970968;28;102161;-88
2021/04/13 04:12:22;;;;;;;;;1.00;0.00;;;;;15.23;43.48;99205.50;4976685;28;102302;-88
2021/04/13 04:15:09;;;;;;;;;0.00;0.00;;;;;15.22;44.13;99203.84;4954530;28;103694;-87
2021/04/13 04:17:47;;;;;;;;;0.00;0.00;;;;;15.21;43.73;99204.91;4968592;28;102175;-88
2021/04/13 04:20:13;;;;;;;;;0.00;0.00;;;;;15.21;43.47;99218.53;4975094;28;101941;-89
2021/04/13 04:22:50;;;;;;;;;0.00;0.00;;;;;15.19;43.45;99208.66;4966933;28;101672;-79
2021/04/13 04:25:24;;;;;;;;;1.00;0.00;;;;;15.19;43.93;99213.28;4964223;28;103666;-80
2021/04/13 04:27:54;;;;;;;;;0.00;0.00;;;;;15.18;44.08;99217.88;4975100;28;101896;-88
2021/04/13 04:30:28;;;;;;;;;0.00;0.00;;;;;15.19;43.82;99213.28;4968899;28;102155;-80
2021/04/13 04:32:56;;;;;;;;;0.00;0.00;;;;;15.17;43.97;99218.94;4957662;28;102152;-80
2021/04/13 04:35:43;;;;;;;;;0.00;0.00;;;;;15.15;43.96;99209.31;4995388;28;103501;-88
2021/04/13 04:38:13;;;;;;;;;1.00;0.00;;;;;15.15;43.62;99206.59;4993092;28;102609;-88
2021/04/13 04:40:49;;;;;;;;;0.00;0.00;;;;;15.14;43.69;99210.34;4990738;28;101802;-88
2021/04/13 04:43:18;;;;;;;;;0.00;0.00;;;;;15.14;43.70;99205.75;4992278;28;102369;-88
2021/04/13 04:45:47;;;;;;;;;0.00;0.00;;;;;15.15;43.72;99212.03;4999218;28;103256;-88
2021/04/13 04:48:34;;;;;;;;;0.00;0.00;;;;;15.13;43.54;99225.88;4991240;28;102243;-88
2021/04/13 04:51:08;;;;;;;;;0.00;0.00;;;;;15.13;43.98;99225.88;4993699;28;102083;-87
2021/04/13 04:53:35;;;;;;;;;0.00;0.00;;;;;15.14;43.30;99222.09;4994524;28;103619;-88
2021/04/13 04:56:04;;;;;;;;;1.00;0.00;;;;;15.13;43.49;99231.31;4988166;28;103551;-88
2021/04/13 04:58:31;;;;;;;;;0.25;0.00;;;;;15.13;43.41;99228.59;4987804;28;102760;-88
2021/04/13 05:00:57;;;;;;;;;0.25;0.00;;;;;15.12;43.37;99232.38;4992420;28;102163;-80
2021/04/13 05:03:24;;;;;;;;;0.75;0.00;;;;;15.11;43.12;99230.72;4993510;28;102413;-80
2021/04/13 05:05:52;;;;;;;;;0.00;0.00;;;;;15.12;43.78;99232.38;4999933;28;103851;-89
2021/04/13 05:08:19;;;;;;;;;0.00;0.00;;;;;15.12;43.37;99235.13;4992727;28;102550;-88
2021/04/13 05:10:46;;;;;;;;;0.00;0.00;;;;;15.11;43.81;99238.88;4989664;28;101972;-89
2021/04/13 05:13:13;;;;;;;;;0.00;0.00;;;;;15.10;43.99;99234.47;5015539;28;101709;-88
2021/04/13 05:15:40;;;;;;;;;0.25;0.25;;;;;15.09;43.70;99240.97;4987806;28;103422;-87
2021/04/13 05:18:07;;;;;;;;;0.00;0.00;;;;;15.11;43.18;99244.34;4994491;28;101958;-87
2021/04/13 05:20:34;;;;;;;;;0.50;0.00;;;;;15.10;43.88;99242.66;4997557;28;101935;-87
2021/04/13 05:23:00;;;;;;;;;1.00;0.00;;;;;15.09;43.76;99240.97;4992399;28;104293;-86
2021/04/13 05:25:27;;;;;;;;;0.75;0.50;;;;;15.11;43.56;99244.34;4991184;28;103625;-87
2021/04/13 05:27:54;;;;;;;;;0.00;0.00;;;;;15.10;43.31;99245.38;4996446;28;101837;-87
2021/04/13 05:30:21;;;;;;;;;1.67;0.00;;;;;15.10;43.66;99245.38;4991625;28;102699;-87
2021/04/13 05:32:51;;;;;;;;;0.00;0.00;;;;;15.10;43.39;99249.97;4993288;28;102042;-87
2021/04/13 05:35:22;;;;;;;;;0.00;0.00;;;;;15.10;43.65;99258.16;4964184;28;102944;-87
2021/04/13 05:37:49;;;;;;;;;0.00;0.00;;;;;15.10;43.20;99256.28;4991446;28;102009;-87
2021/04/13 05:40:24;;;;;;;;;0.00;0.00;;;;;15.10;43.30;99258.16;4991738;28;101982;-87
2021/04/13 05:42:51;;;;;;;;;0.25;0.00;;;;;15.10;43.33;99260.88;4996137;28;103394;-87
2021/04/13 05:45:19;;;;;;;;;0.00;0.00;;;;;15.10;43.55;99259.00;4973589;28;103952;-87
2021/04/13 05:47:47;;;;;;;;;0.00;0.00;;;;;15.11;43.44;99251.66;4991950;28;102193;-87
2021/04/13 05:50:25;;;;;;;;;0.00;0.00;;;;;15.09;43.66;99268.22;4994185;28;101978;-86
2021/04/13 05:52:52;;;;;;;;;0.00;0.00;;;;;15.09;43.11;99273.66;4990932;28;101697;-87
2021/04/13 05:55:18;;;;;;;;;2.00;0.00;;;;;15.11;43.14;99277.00;4994659;28;103399;-87
2021/04/13 05:57:47;;;;;;;;;0.00;0.00;;;;;15.09;43.51;99273.66;4994343;28;102011;-87
2021/04/13 06:00:15;;;;;;;;;0.00;0.00;;;;;15.09;43.14;99261.91;4990526;28;101700;-87
2021/04/13 06:02:43;;;;;;;;;0.00;0.00;;;;;15.09;43.13;99270.94;4992046;28;101954;-87
2021/04/13 06:05:11;;;;;;;;;0.00;0.00;;;;;15.09;43.17;99270.09;4991218;28;103594;-87
2021/04/13 06:07:38;;;;;;;;;0.00;0.00;;;;;15.10;43.58;99274.50;4972540;28;102039;-87
2021/04/13 06:10:05;;;;;;;;;0.00;0.00;;;;;15.10;43.36;99266.31;4994098;28;101909;-87
2021/04/13 06:12:32;;;;;;;;;0.00;0.00;;;;;15.10;43.26;99269.03;4975758;28;103044;-87
2021/04/13 06:14:59;;;;;;;;;0.00;0.00;;;;;15.10;43.77;99266.31;4971076;28;106575;-87
2021/04/13 06:17:26;;;;;;;;;0.00;0.00;;;;;15.09;43.35;99262.75;4995723;28;103165;-87
2021/04/13 06:19:52;;;;;;;;;0.00;0.00;;;;;15.09;43.15;99260.03;4989065;28;102141;-87
2021/04/13 06:22:19;;;;;;;;;0.00;0.00;;;;;15.06;43.18;99260.47;4990999;28;103087;-87
2021/04/13 06:24:46;;;;;;;;;0.00;0.00;;;;;15.09;43.61;99273.66;4992855;28;103463;-87
2021/04/13 06:27:12;;;;;;;;;0.00;0.00;;;;;15.09;43.19;99267.38;4994266;28;101950;-86
2021/04/13 06:29:39;;;;;;;;;0.00;0.00;;;;;15.09;43.24;99273.66;4994777;28;101980;-87
2021/04/13 06:32:09;;;;;;;;;0.00;0.00;;;;;15.10;43.17;99285.38;4999751;28;102035;-87
2021/04/13 06:34:36;;;;;;;;;0.00;0.00;;;;;15.09;43.41;99292.72;5003896;28;103109;-87
2021/04/13 06:37:04;;;;;;;;;0.00;0.00;;;;;15.07;43.46;99286.66;5011878;28;101688;-86
2021/04/13 06:39:32;;;;;;;;;0.00;0.00;;;;;15.09;43.29;99290.00;5000105;28;102976;-87
2021/04/13 06:42:29;;;;;;;;;0.00;0.00;;;;;15.09;43.44;99290.00;4993250;28;102239;-86
2021/04/13 06:45:31;;;;;;;;;0.00;0.00;;;;;15.07;42.90;99297.56;4990859;28;103205;-87
2021/04/13 06:48:00;;;;;;;;;0.33;0.33;;;;;15.09;43.12;99294.59;5008891;28;102252;-87
2021/04/13 06:51:06;;;;;;;;;0.00;0.00;;;;;15.10;43.16;99301.72;4994342;28;101946;-86
2021/04/13 06:53:53;;;;;;;;;0.00;0.00;;;;;15.09;43.21;99306.34;5011897;28;102032;-87
2021/04/13 06:56:53;;;;;;;;;0.00;0.00;;;;;15.11;42.96;99322.47;4993676;28;103423;-86
2021/04/13 06:59:37;;;;;;;;;0.00;0.00;;;;;15.11;43.27;99314.31;4969852;28;102091;-86
2021/04/13 07:02:16;;;;;;;;;0.00;0.00;;;;;15.10;43.47;99310.75;5012282;28;101996;-87
2021/04/13 07:05:04;;;;;;;;;0.00;0.00;;;;;15.10;43.07;99302.56;4978858;28;101707;-86
2021/04/13 07:08:02;;;;;;;;;0.50;0.00;;;;;15.10;43.00;99302.56;4991537;28;103423;-87
2021/04/13 07:10:31;;;;;;;;;0.00;0.00;;;;;15.10;43.17;99313.47;4980051;28;103311;-87
2021/04/13 07:13:05;;;;;;;;;1.00;0.00;;;;;15.10;43.23;99324.38;4973277;28;101671;-87
2021/04/13 07:15:36;;;;;;;;;0.00;0.00;;;;;15.12;42.94;99318.72;4993217;28;101931;-87
2021/04/13 07:18:05;;;;;;;;;0.00;0.00;;;;;15.11;43.52;99319.75;5010238;28;103872;-86
2021/04/13 07:20:34;;;;;;;;;0.00;0.00;;;;;15.11;43.14;99322.47;4997731;28;102260;-86
2021/04/13 07:23:10;;;;;;;;;0.00;0.00;;;;;15.11;43.12;99314.31;5008968;28;102082;-87
2021/04/13 07:25:46;;;;;;;;;1.00;0.00;;;;;15.12;43.00;99321.44;4996007;28;101854;-86
2021/04/13 07:28:20;;;;;;;;;0.00;0.00;;;;;15.10;43.03;99318.91;4989790;28;103722;-86
2021/04/13 07:30:54;;;;;;;;;1.00;0.00;;;;;15.11;43.51;99320.59;4978283;28;102148;-86
2021/04/13 07:33:24;;;;;;;;;0.00;0.00;;;;;15.12;43.03;99322.28;4992943;28;103459;-86
2021/04/13 07:35:55;;;;;;;;;0.00;0.00;;;;;15.12;42.94;99321.44;5014589;28;102000;-86
2021/04/13 07:38:24;;;;;;;;;0.00;0.00;;;;;15.13;42.73;99323.09;4965848;28;103471;-86
2021/04/13 07:41:07;;;;;;;;;0.25;0.25;;;;;15.12;43.02;99322.28;5011154;28;101912;-87
2021/04/13 07:43:43;;;;;;;;;0.25;0.00;;;;;15.10;43.04;99318.06;4987528;28;103393;-86
2021/04/13 07:46:36;;;;;;;;;0.00;0.00;;;;;15.11;42.84;99320.59;4991992;28;102557;-87
2021/04/13 07:49:15;;;;;;;;;0.00;0.00;;;;;15.13;43.32;99317.63;4974466;28;103399;-86
2021/04/13 07:51:45;;;;;;;;;0.00;0.00;;;;;15.11;43.33;99315.16;5014028;28;101864;-87
2021/04/13 07:54:32;;;;;;;;;0.00;0.00;;;;;15.12;42.81;99319.56;5015656;28;102079;-86
2021/04/13 07:57:04;;;;;;;;;0.00;0.00;;;;;15.10;42.66;99318.06;4983763;28;102057;-87
2021/04/13 07:59:40;;;;;;;;;0.00;0.00;;;;;15.11;43.34;99328.78;4979961;28;103631;-87
2021/04/13 08:02:07;;;;;;;;;0.00;0.00;;;;;15.11;43.00;99326.03;4997150;28;101959;-87
2021/04/13 08:05:38;;;;;;;;;0.00;0.00;;;;;15.10;43.37;99332.53;5013352;28;102780;-86
2021/04/13 08:08:09;;;;;;;;;0.00;0.00;;;;;15.11;43.38;99330.66;5007293;28;102275;-87
2021/04/13 08:10:38;;;;;;;;;0.00;0.00;;;;;15.06;43.07;99328.56;4978009;28;103636;-87
2021/04/13 08:13:07;;;;;;;;;0.00;0.00;;;;;15.10;43.28;99332.53;4982423;28;102162;-87
2021/04/13 08:15:45;;;;;;;;;0.00;0.00;;;;;15.10;42.52;99328.97;4989994;28;102267;-87
2021/04/13 08:18:41;;;;;;;;;1.00;1.00;;;;;15.10;42.66;99324.38;5017220;28;101705;-87
2021/04/13 08:21:25;;;;;;;;;0.00;0.00;;;;;15.10;42.62;99331.69;5012473;28;103768;-87
2021/04/13 08:23:53;;;;;;;;;1.00;0.00;;;;;15.09;42.57;99336.31;5010181;28;102009;-87
2021/04/13 08:26:38;;;;;;;;;0.25;0.00;;;;;15.10;42.81;99334.41;5008021;28;101988;-87
2021/04/13 08:29:16;;;;;;;;;0.00;0.00;;;;;15.10;42.91;99331.69;5010352;28;102218;-87
2021/04/13 08:34:53;;;;;;;;;1.00;0.00;;;;;15.09;42.57;99325.41;4989384;28;101603;-87
2021/04/13 08:37:32;;;;;;;;;0.00;0.00;;;;;15.09;42.76;99330.84;4989283;28;101978;-87
2021/04/13 08:40:12;;;;;;;;;0.75;0.75;;;;;15.10;42.95;99335.25;4992676;28;101729;-87
2021/04/13 08:42:47;;;;;;;;;0.75;0.00;;;;;15.08;42.65;99331.91;4992956;28;103953;-87
2021/04/13 08:45:27;;;;;;;;;0.00;0.00;;;;;15.09;42.98;99327.28;4991412;28;102042;-86
2021/04/13 08:48:02;;;;;;;;;0.00;0.00;;;;;15.09;43.06;99327.28;4992599;28;101926;-86
2021/04/13 08:50:41;;;;;;;;;0.00;0.00;;;;;15.08;43.04;99342.78;4995469;28;102097;-87
2021/04/13 08:53:30;;;;;;;;;0.00;0.00;;;;;15.07;43.08;99354.75;4990769;28;103807;-87
2021/04/13 08:56:23;;;;;;;;;0.00;0.00;;;;;15.07;43.00;99343.03;4990186;28;103353;-87
2021/04/13 08:59:00;;;;;;;;;0.00;0.00;;;;;15.08;42.70;99344.72;4990828;28;102487;-87
2021/04/13 09:01:33;;;;;;;;;0.50;0.50;;;;;15.06;42.57;99339.47;4993828;28;102310;-86
2021/04/13 09:04:02;;;;;;;;;0.50;0.50;;;;;15.05;43.01;99340.50;4992086;28;103554;-87
2021/04/13 09:06:57;;;;;;;;;0.00;0.00;;;;;15.04;42.47;99338.81;4992297;28;101943;-86
2021/04/13 09:09:26;;;;;;;;;1.00;0.00;;;;;15.05;42.90;99337.78;5005231;28;102050;-87
2021/04/13 09:11:59;;;;;;;;;0.00;0.00;;;;;15.06;42.96;99333.19;4997764;28;102073;-87
2021/04/13 09:14:38;;;;;;;;;0.00;0.00;;;;;15.05;42.86;99321.44;4974303;28;103384;-87
2021/04/13 09:17:19;;;;;;;;;1.25;1.00;;;;;15.05;42.94;99306.97;4993157;28;102514;-87
2021/04/13 09:20:06;;;;;;;;;0.00;0.00;;;;;15.06;43.09;99305.94;4991967;28;103428;-87
2021/04/13 09:22:47;;;;;;;;;1.00;1.00;;;;;15.06;43.14;99303.22;4990411;28;102900;-87
2021/04/13 09:25:31;;;;;;;;;1.00;1.00;;;;;15.07;42.54;99303.00;4974143;28;103380;-87
2021/04/13 09:28:21;;;;;;;;;0.50;0.00;;;;;15.07;42.83;99299.44;4992359;28;101933;-87
2021/04/13 09:31:00;;;;;;;;;0.50;0.50;;;;;15.08;42.88;99299.22;4993500;28;101783;-87
2021/04/13 09:33:40;;;;;;;;;1.00;1.00;;;;;15.07;42.87;99300.28;5007926;28;102535;-87
2021/04/13 09:36:35;;;;;;;;;0.00;0.00;;;;;15.07;43.06;99302.16;4995869;28;103399;-87
2021/04/13 09:39:11;;;;;;;;;1.50;1.00;;;;;15.07;42.42;99296.72;4992222;28;101845;-87
2021/04/13 09:42:29;;;;;;;;;0.50;0.50;;;;;15.07;42.81;99299.44;4996025;28;101888;-87
2021/04/13 09:45:08;;;;;;;;;0.75;0.75;;;;;15.06;42.76;99295.88;4962326;28;101825;-87
2021/04/13 09:47:38;;;;;;;;;0.25;0.25;;;;;15.06;43.02;99295.88;4993634;28;103558;-87
2021/04/13 09:50:23;;;;;;;;;0.00;0.00;;;;;15.09;42.74;99300.06;5019392;28;101982;-87
2021/04/13 09:53:11;;;;;;;;;0.00;0.00;;;;;15.09;43.02;99294.59;5017681;28;101794;-87
2021/04/13 09:56:13;;;;;;;;;1.00;1.00;;;;;15.08;42.11;99288.31;5011165;28;102564;-87
2021/04/13 09:59:16;;;;;;;;;2.50;0.00;;;;;15.08;42.42;99288.31;5007821;28;103669;-87
2021/04/13 10:02:17;;;;;;;;;1.00;1.00;;;;;15.08;42.74;99271.97;5012016;28;101951;-86
2021/04/13 10:04:54;;;;;;;;;0.00;0.00;;;;;15.08;42.50;99280.16;4998598;28;102097;-87
2021/04/13 10:07:30;;;;;;;;;0.75;0.75;;;;;15.07;42.79;99278.50;5013535;28;101967;-87
2021/04/13 10:09:58;;;;;;;;;1.00;1.00;;;;;15.08;43.02;99282.88;4977723;28;103788;-85
2021/04/13 10:12:40;;;;;;;;;1.50;1.00;;;;;15.08;42.87;99276.63;4976494;28;101952;-87
2021/04/13 10:15:28;;;;;;;;;0.75;0.75;;;;;15.07;42.80;99274.94;4992716;28;103290;-87
2021/04/13 10:18:23;;;;;;;;;0.00;0.00;;;;;15.08;42.74;99276.63;4992880;28;104255;-86
2021/04/13 10:21:17;;;;;;;;;1.00;1.00;;;;;15.08;42.70;99271.16;4997059;28;104792;-81
2021/04/13 10:24:33;;;;;;;;;1.00;0.00;;;;;15.08;42.73;99266.53;5014890;28;102059;-87
2021/04/13 10:27:27;;;;;;;;;1.00;0.50;;;;;15.08;42.87;99273.88;4999381;28;101711;-87
2021/04/13 10:29:56;;;;;;;;;0.00;0.00;;;;;15.09;42.88;99283.72;5013467;28;102033;-86
2021/04/13 10:32:41;;;;;;;;;1.75;1.00;;;;;15.09;43.09;99272.81;5008921;28;103408;-87
2021/04/13 10:35:30;;;;;;;;;0.00;0.00;;;;;15.09;42.94;99270.94;4980986;28;101860;-87
2021/04/13 10:38:35;;;;;;;;;0.00;0.00;;;;;15.10;43.09;99280.78;4995545;28;102054;-87
2021/04/13 10:41:24;;;;;;;;;0.00;0.00;;;;;15.09;42.61;99267.38;5007306;28;102577;-87
2021/04/13 10:44:23;;;;;;;;;0.50;0.50;;;;;15.05;42.81;99261.53;4991337;28;102489;-87
2021/04/13 10:47:12;;;;;;;;;0.00;0.00;;;;;15.10;42.44;99274.50;4976668;28;102381;-87
2021/04/13 10:50:07;;;;;;;;;0.25;0.25;;;;;15.09;42.40;99273.66;5014172;28;103870;-88
2021/04/13 10:53:04;;;;;;;;;1.00;1.00;;;;;15.09;42.72;99270.09;4996360;28;102236;-87
2021/04/13 10:55:41;;;;;;;;;0.00;0.00;;;;;15.09;42.38;99268.22;4994863;28;103423;-87
2021/04/13 10:58:27;;;;;;;;;1.00;1.00;;;;;15.09;42.87;99273.66;4993317;28;102007;-87
2021/04/13 11:01:15;;;;;;;;;1.00;0.75;;;;;15.08;42.58;99266.53;5011627;28;102042;-87
2021/04/13 11:04:19;;;;;;;;;0.25;0.25;;;;;15.08;43.11;99263.81;5014170;28;103112;-87
2021/04/13 11:07:06;;;;;;;;;0.00;0.00;;;;;15.08;42.84;99265.72;5011395;28;103277;-87
2021/04/13 11:09:59;;;;;;;;;1.00;0.00;;;;;15.08;42.55;99261.06;4994926;28;102877;-87
2021/04/13 11:13:03;;;;;;;;;1.00;0.00;;;;;15.07;42.89;99256.72;4993810;28;102117;-87
2021/04/13 11:16:07;;;;;;;;;0.33;0.00;;;;;15.08;42.44;99265.72;5011439;28;101967;-87
2021/04/13 11:18:37;;;;;;;;;0.00;0.00;;;;;15.08;42.73;99257.53;5011933;28;103585;-87
2021/04/13 11:21:12;;;;;;;;;1.00;1.00;;;;;15.06;42.65;99251.47;5009083;28;102077;-87
2021/04/13 11:24:31;;;;;;;;;0.00;0.00;;;;;15.04;42.24;99254.38;4994710;28;101856;-87
2021/04/13 11:27:39;;;;;;;;;0.33;0.33;;;;;15.06;42.78;99257.75;5012712;28;101866;-87
2021/04/13 11:30:21;;;;;;;;;0.25;0.25;;;;;15.06;42.87;99246.84;4973818;28;103163;-87
2021/04/13 11:33:12;;;;;;;;;1.00;1.00;;;;;15.06;42.75;99244.13;4993701;28;102945;-87
2021/04/13 11:35:44;;;;;;;;;1.00;1.00;;;;;15.06;43.09;99235.97;4967703;28;102996;-87
2021/04/13 11:38:30;;;;;;;;;0.50;0.50;;;;;15.08;42.23;99243.94;4995942;28;102226;-86
2021/04/13 11:41:52;;;;;;;;;0.50;0.50;;;;;15.06;42.45;99235.97;4972661;28;102424;-87
2021/04/13 11:44:36;;;;;;;;;0.00;0.00;;;;;15.07;42.61;99245.81;4950603;28;102115;-87
2021/04/13 11:47:26;;;;;;;;;1.00;0.75;;;;;15.07;42.44;99242.25;4969404;28;103213;-86
2021/04/13 11:50:14;;;;;;;;;0.00;0.00;;;;;15.07;42.56;99244.97;4967707;28;102928;-87
2021/04/13 11:52:53;;;;;;;;;1.00;1.00;;;;;15.07;42.60;99245.81;4971938;28;103341;-87
2021/04/13 11:55:29;;;;;;;;;0.00;0.00;;;;;15.06;42.67;99246.84;4965752;28;102055;-86
2021/04/13 11:58:12;;;;;;;;;1.00;1.00;;;;;15.07;42.59;99229.47;4968394;28;101799;-87
2021/04/13 12:00:39;;;;;;;;;0.00;0.00;;;;;15.01;42.37;99224.88;4974056;28;101737;-87
2021/04/13 12:03:19;;;;;;;;;0.25;0.25;;;;;15.07;42.32;99237.63;4964581;28;102251;-87
2021/04/13 12:05:54;;;;;;;;;0.00;0.00;;;;;15.06;42.61;99235.13;4969111;28;102051;-87
2021/04/13 12:08:36;;;;;;;;;1.00;1.00;;;;;15.07;42.91;99234.91;4987429;28;102234;-86
2021/04/13 12:11:08;;;;;;;;;0.00;0.00;;;;;15.06;42.67;99219.63;4972377;28;103597;-87
2021/04/13 12:13:48;;;;;;;;;2.50;1.00;;;;;15.06;42.25;99214.16;4966442;28;103859;-87